createdAt,value
2023-04-02T00:01:44.008Z,97767.80
2023-04-02T00:04:26.532Z,97767.20
2023-04-02T00:07:33.405Z,97771.60
2023-04-02T00:10:32.266Z,97768.80
2023-04-02T00:13:25.765Z,97772.80
2023-04-02T00:16:05.076Z,97773.40
2023-04-02T00:18:51.293Z,97772.40
2023-04-02T00:21:34.275Z,97775.60
2023-04-02T00:24:21.631Z,97777.60
2023-04-02T00:26:59.205Z,97783.40
2023-04-02T00:29:35.650Z,97785.40
2023-04-02T00:32:23.802Z,97781.60
2023-04-02T00:35:01.558Z,97780.80
2023-04-02T00:37:42.268Z,97781.40
2023-04-02T00:40:27.454Z,97782.80
2023-04-02T00:43:07.243Z,97781.80
2023-04-02T00:45:51.219Z,97783.80
2023-04-02T00:48:46.865Z,97785.80
2023-04-02T00:51:30.922Z,97793.40
2023-04-02T00:54:16.167Z,97788.20
2023-04-02T00:56:58.778Z,97790.40
2023-04-02T00:59:45.164Z,97788.60
2023-04-02T01:02:33.809Z,97792.60
2023-04-02T01:05:25.901Z,97791.60
2023-04-02T01:08:13.395Z,97797.00
2023-04-02T01:11:10.014Z,97804.20
2023-04-02T01:13:59.672Z,97802.00
2023-04-02T01:16:51.508Z,97810.00
2023-04-02T01:20:14.158Z,97809.00
2023-04-02T01:22:59.451Z,97810.60
2023-04-02T01:25:45.078Z,97814.80
2023-04-02T01:28:29.580Z,97818.20
2023-04-02T01:31:07.848Z,97815.80
2023-04-02T01:33:46.019Z,97817.80
2023-04-02T01:36:35.851Z,97825.60
2023-04-02T01:39:42.964Z,97826.60
2023-04-02T01:42:31.188Z,97830.00
2023-04-02T01:45:14.091Z,97828.80
2023-04-02T01:47:52.337Z,97830.00
2023-04-02T01:50:38.161Z,97831.00
2023-04-02T01:53:17.959Z,97831.60
2023-04-02T01:55:59.594Z,97833.40
2023-04-02T01:58:38.296Z,97826.60
2023-04-02T02:01:22.619Z,97832.80
2023-04-02T02:04:01.162Z,97835.40
2023-04-02T02:06:37.820Z,97839.80
2023-04-02T02:09:23.256Z,97840.60
2023-04-02T02:12:02.986Z,97844.40
2023-04-02T02:14:39.819Z,97846.80
2023-04-02T02:17:21.626Z,97846.00
2023-04-02T02:20:03.893Z,97849.40
2023-04-02T02:22:44.932Z,97847.00
2023-04-02T02:25:27.366Z,97850.80
2023-04-02T02:28:17.151Z,97849.60
2023-04-02T02:30:59.237Z,97851.40
2023-04-02T02:33:42.864Z,97848.00
2023-04-02T02:36:28.153Z,97848.80
2023-04-02T02:39:17.822Z,97851.80
2023-04-02T02:42:06.077Z,97854.40
2023-04-02T02:44:48.661Z,97859.00
2023-04-02T02:47:30.661Z,97863.20
2023-04-02T02:50:20.364Z,97866.20
2023-04-02T02:53:04.117Z,97867.60
2023-04-02T02:55:42.989Z,97868.80
2023-04-02T02:58:35.641Z,97871.80
2023-04-02T03:01:21.719Z,97871.00
2023-04-02T03:04:01.266Z,97871.80
2023-04-02T03:06:40.393Z,97878.00
2023-04-02T03:09:32.523Z,97878.20
2023-04-02T03:12:30.010Z,97878.40
2023-04-02T03:15:19.550Z,97880.00
2023-04-02T03:18:04.693Z,97883.80
2023-04-02T03:20:49.621Z,97884.00
2023-04-02T03:23:32.378Z,97886.20
2023-04-02T03:26:19.216Z,97884.00
2023-04-02T03:29:04.499Z,97888.20
2023-04-02T03:31:46.241Z,97884.20
2023-04-02T03:34:30.198Z,97890.00
2023-04-02T03:37:16.353Z,97891.80
2023-04-02T03:40:01.308Z,97893.40
2023-04-02T03:42:50.625Z,97901.40
2023-04-02T03:45:34.652Z,97903.80
2023-04-02T03:48:25.929Z,97908.60
2023-04-02T03:51:11.910Z,97909.20
2023-04-02T03:53:50.123Z,97911.40
2023-04-02T03:56:40.181Z,97915.20
2023-04-02T03:59:35.891Z,97921.00
2023-04-02T04:02:39.518Z,97926.00
2023-04-02T04:05:30.170Z,97932.40
2023-04-02T04:08:17.647Z,97933.40
2023-04-02T04:11:02.334Z,97937.20
2023-04-02T04:13:50.068Z,97931.60
2023-04-02T04:16:36.084Z,97933.60
2023-04-02T04:19:21.999Z,97935.00
2023-04-02T04:22:17.977Z,97935.60
2023-04-02T04:24:57.333Z,97941.40
2023-04-02T04:27:43.881Z,97946.80
2023-04-02T04:30:30.817Z,97944.60
2023-04-02T04:33:16.516Z,97948.60
2023-04-02T04:35:58.633Z,97950.00
2023-04-02T04:38:44.292Z,97947.80
2023-04-02T04:41:29.462Z,97952.20
2023-04-02T04:44:17.944Z,97956.80
2023-04-02T04:47:04.919Z,97960.60
2023-04-02T04:49:48.949Z,97963.00
2023-04-02T04:52:31.354Z,97965.40
2023-04-02T04:55:25.759Z,97969.20
2023-04-02T04:58:15.916Z,97970.60
2023-04-02T05:01:05.281Z,97979.40
2023-04-02T05:03:47.816Z,97978.00
2023-04-02T05:06:40.620Z,97984.80
2023-04-02T05:09:26.501Z,97988.60
2023-04-02T05:12:18.710Z,97988.20
2023-04-02T05:15:04.332Z,97991.00
2023-04-02T05:17:50.624Z,97996.20
2023-04-02T05:20:39.245Z,98000.00
2023-04-02T05:23:28.289Z,98003.00
2023-04-02T05:26:14.687Z,98006.40
2023-04-02T05:29:00.936Z,98010.20
2023-04-02T05:31:49.087Z,98010.00
2023-04-02T05:34:37.224Z,98015.20
2023-04-02T05:37:21.272Z,98020.80
2023-04-02T05:40:07.972Z,98023.60
2023-04-02T05:42:52.908Z,98026.20
2023-04-02T05:45:41.413Z,98026.80
2023-04-02T05:48:26.667Z,98027.60
2023-04-02T05:51:07.724Z,98027.20
2023-04-02T05:53:51.575Z,98026.20
2023-04-02T05:56:33.993Z,98025.00
2023-04-02T05:59:20.278Z,98024.60
2023-04-02T06:02:04.417Z,98023.00
2023-04-02T06:04:59.372Z,98025.40
2023-04-02T06:07:50.553Z,98028.20
2023-04-02T06:10:33.711Z,98030.00
2023-04-02T06:13:16.424Z,98032.20
2023-04-02T06:15:53.455Z,98035.40
2023-04-02T06:18:37.998Z,98033.20
2023-04-02T06:21:19.043Z,98042.80
2023-04-02T06:24:05.637Z,98042.60
2023-04-02T06:26:52.158Z,98042.20
2023-04-02T06:29:39.719Z,98042.80
2023-04-02T06:32:20.768Z,98046.60
2023-04-02T06:34:58.469Z,98044.80
2023-04-02T06:37:40.584Z,98054.00
2023-04-02T06:40:43.830Z,98058.20
2023-04-02T06:43:47.196Z,98060.20
2023-04-02T06:46:36.953Z,98065.40
2023-04-02T06:49:34.367Z,98074.60
2023-04-02T06:52:25.441Z,98077.60
2023-04-02T06:55:06.025Z,98078.00
2023-04-02T06:57:43.042Z,98077.40
2023-04-02T07:00:34.245Z,98081.20
2023-04-02T07:03:22.117Z,98080.20
2023-04-02T07:05:59.439Z,98086.80
2023-04-02T07:08:36.024Z,98089.00
2023-04-02T07:11:18.735Z,98090.20
2023-04-02T07:13:57.554Z,98093.80
2023-04-02T07:16:38.510Z,98095.60
2023-04-02T07:19:23.753Z,98096.80
2023-04-02T07:22:04.370Z,98102.60
2023-04-02T07:24:46.563Z,98103.60
2023-04-02T07:27:22.930Z,98107.40
2023-04-02T07:29:59.900Z,98111.40
2023-04-02T07:32:36.811Z,98115.00
2023-04-02T07:35:15.182Z,98117.00
2023-04-02T07:37:52.969Z,98116.00
2023-04-02T07:40:29.561Z,98121.00
2023-04-02T07:43:06.534Z,98120.20
2023-04-02T07:45:43.108Z,98127.80
2023-04-02T07:48:19.971Z,98133.80
2023-04-02T07:50:56.501Z,98135.60
2023-04-02T07:53:38.919Z,98137.80
2023-04-02T07:56:20.584Z,98136.00
2023-04-02T07:58:57.121Z,98139.40
2023-04-02T08:01:35.597Z,98134.00
2023-04-02T08:04:23.075Z,98143.00
2023-04-02T08:06:59.791Z,98145.00
2023-04-02T08:09:36.482Z,98148.40
2023-04-02T08:12:15.692Z,98148.00
2023-04-02T08:14:52.101Z,98151.20
2023-04-02T08:17:31.584Z,98153.00
2023-04-02T08:20:11.990Z,98162.60
2023-04-02T08:22:49.202Z,98165.60
2023-04-02T08:25:25.704Z,98168.00
2023-04-02T08:28:03.054Z,98167.00
2023-04-02T08:30:39.713Z,98173.80
2023-04-02T08:33:16.743Z,98172.40
2023-04-02T08:35:54.236Z,98176.60
2023-04-02T08:38:31.373Z,98179.60
2023-04-02T08:41:09.654Z,98187.00
2023-04-02T08:44:36.887Z,98189.80
2023-04-02T08:47:19.128Z,98197.80
2023-04-02T08:50:03.177Z,98210.80
2023-04-02T08:52:42.369Z,98225.40
2023-04-02T08:55:39.998Z,98231.60
2023-04-02T08:58:38.213Z,98237.80
2023-04-02T09:01:31.690Z,98244.80
2023-04-02T09:04:18.959Z,98245.60
2023-04-02T09:07:00.772Z,98246.20
2023-04-02T09:09:41.260Z,98256.00
2023-04-02T09:12:27.121Z,98256.60
2023-04-02T09:15:25.873Z,98260.60
2023-04-02T09:18:14.346Z,98262.60
2023-04-02T09:20:50.933Z,98266.80
2023-04-02T09:23:30.622Z,98272.80
2023-04-02T09:26:22.112Z,98278.60
2023-04-02T09:29:25.947Z,98286.80
2023-04-02T09:32:19.695Z,98289.60
2023-04-02T09:35:24.667Z,98298.20
2023-04-02T09:38:23.676Z,98302.40
2023-04-02T09:41:06.778Z,98309.80
2023-04-02T09:43:43.990Z,98312.20
2023-04-02T09:46:28.396Z,98312.80
2023-04-02T09:49:06.280Z,98319.80
2023-04-02T09:51:42.628Z,98324.60
2023-04-02T09:54:22.626Z,98331.80
2023-04-02T09:57:18.586Z,98338.20
2023-04-02T10:00:41.884Z,98340.40
2023-04-02T10:03:34.510Z,98348.60
2023-04-02T10:06:17.192Z,98350.00
2023-04-02T10:08:53.735Z,98354.20
2023-04-02T10:11:46.094Z,98357.40
2023-04-02T10:14:31.122Z,98363.00
2023-04-02T10:17:18.917Z,98365.40
2023-04-02T10:20:06.338Z,98374.20
2023-04-02T10:22:43.324Z,98380.60
2023-04-02T10:25:23.202Z,98376.60
2023-04-02T10:28:11.809Z,98384.20
2023-04-02T10:31:05.943Z,98385.60
2023-04-02T10:33:51.477Z,98392.20
2023-04-02T10:36:50.903Z,98399.00
2023-04-02T10:39:36.870Z,98403.40
2023-04-02T10:42:27.571Z,98405.40
2023-04-02T10:45:25.455Z,98410.20
2023-04-02T10:48:16.220Z,98414.00
2023-04-02T10:51:06.384Z,98422.00
2023-04-02T10:53:59.390Z,98428.00
2023-04-02T10:56:49.821Z,98436.60
2023-04-02T10:59:32.198Z,98435.00
2023-04-02T11:02:32.001Z,98440.20
2023-04-02T11:05:23.723Z,98442.00
2023-04-02T11:08:15.421Z,98450.60
2023-04-02T11:11:03.315Z,98456.80
2023-04-02T11:13:53.570Z,98464.80
2023-04-02T11:16:30.897Z,98475.00
2023-04-02T11:19:31.309Z,98477.60
2023-04-02T11:22:17.677Z,98482.60
2023-04-02T11:24:56.709Z,98484.60
2023-04-02T11:27:35.612Z,98485.40
2023-04-02T11:30:31.356Z,98494.80
2023-04-02T11:33:44.727Z,98497.60
2023-04-02T11:37:30.952Z,98504.20
2023-04-02T11:40:48.408Z,98507.00
2023-04-02T11:44:03.150Z,98510.60
2023-04-02T11:46:50.834Z,98516.00
2023-04-02T11:50:28.661Z,98516.60
2023-04-02T11:53:20.773Z,98518.80
2023-04-02T11:56:21.123Z,98520.80
2023-04-02T11:59:21.590Z,98521.40
2023-04-02T12:02:25.788Z,98522.80
2023-04-02T12:05:28.711Z,98524.60
2023-04-02T12:08:30.767Z,98526.40
2023-04-02T12:11:08.918Z,98534.60
2023-04-02T12:13:59.804Z,98533.20
2023-04-02T12:16:40.692Z,98534.40
2023-04-02T12:19:21.624Z,98538.80
2023-04-02T12:21:59.402Z,98542.20
2023-04-02T12:24:36.323Z,98545.60
2023-04-02T12:27:27.734Z,98548.80
2023-04-02T12:30:22.397Z,98545.20
2023-04-02T12:32:58.977Z,98554.60
2023-04-02T12:35:39.162Z,98555.00
2023-04-02T12:38:29.330Z,98557.80
2023-04-02T12:41:19.878Z,98559.00
2023-04-02T12:44:11.835Z,98558.40
2023-04-02T12:46:49.793Z,98559.60
2023-04-02T12:49:45.323Z,98561.40
2023-04-02T12:52:28.750Z,98562.40
2023-04-02T12:55:17.975Z,98567.40
2023-04-02T12:57:59.924Z,98565.60
2023-04-02T13:00:41.923Z,98564.40
2023-04-02T13:03:26.658Z,98568.20
2023-04-02T13:06:05.412Z,98574.20
2023-04-02T13:08:46.433Z,98578.20
2023-04-02T13:11:23.769Z,98580.20
2023-04-02T13:14:08.549Z,98586.20
2023-04-02T13:16:45.266Z,98590.40
2023-04-02T13:19:34.635Z,98594.00
2023-04-02T13:22:36.744Z,98595.60
2023-04-02T13:25:12.221Z,98604.20
2023-04-02T13:27:48.922Z,98607.20
2023-04-02T13:30:29.823Z,98610.20
2023-04-02T13:33:06.913Z,98612.20
2023-04-02T13:35:43.804Z,98610.40
2023-04-02T13:38:20.319Z,98612.60
2023-04-02T13:40:56.796Z,98612.00
2023-04-02T13:43:33.313Z,98613.00
2023-04-02T13:46:17.941Z,98617.60
2023-04-02T13:48:56.490Z,98612.60
2023-04-02T13:51:40.160Z,98617.40
2023-04-02T13:54:25.969Z,98625.40
2023-04-02T13:57:02.544Z,98625.00
2023-04-02T13:59:39.203Z,98626.40
2023-04-02T14:02:21.961Z,98627.60
2023-04-02T14:05:17.005Z,98633.80
2023-04-02T14:08:10.447Z,98631.60
2023-04-02T14:11:14.913Z,98632.60
2023-04-02T14:14:32.980Z,98635.00
2023-04-02T14:17:26.253Z,98640.60
2023-04-02T14:20:26.441Z,98649.60
2023-04-02T14:23:39.531Z,98645.40
2023-04-02T14:26:27.568Z,98649.80
2023-04-02T14:29:13.903Z,98654.20
2023-04-02T14:32:00.710Z,98656.80
2023-04-02T14:34:49.416Z,98668.60
2023-04-02T14:37:35.863Z,98670.80
2023-04-02T14:40:24.557Z,98673.40
2023-04-02T14:43:09.445Z,98676.20
2023-04-02T14:46:04.124Z,98679.40
2023-04-02T14:48:56.109Z,98683.60
2023-04-02T14:51:41.492Z,98686.00
2023-04-02T14:54:31.052Z,98688.20
2023-04-02T14:57:21.669Z,98689.00
2023-04-02T15:00:10.511Z,98690.60
2023-04-02T15:02:54.833Z,98688.20
2023-04-02T15:05:43.557Z,98695.20
2023-04-02T15:08:27.429Z,98699.60
2023-04-02T15:11:13.319Z,98700.20
2023-04-02T15:13:57.867Z,98700.20
2023-04-02T15:16:36.629Z,98705.80
2023-04-02T15:19:20.144Z,98708.20
2023-04-02T15:22:28.933Z,98714.60
2023-04-02T15:25:27.769Z,98721.00
2023-04-02T15:28:22.628Z,98722.00
2023-04-02T15:31:04.821Z,98724.60
2023-04-02T15:33:54.256Z,98725.60
2023-04-02T15:37:14.036Z,98730.40
2023-04-02T15:40:28.240Z,98736.60
2023-04-02T15:43:19.253Z,98739.20
2023-04-02T15:46:23.515Z,98739.60
2023-04-02T15:49:23.140Z,98745.60
2023-04-02T15:52:15.203Z,98746.40
2023-04-02T15:55:03.484Z,98752.20
2023-04-02T15:58:22.995Z,98754.40
2023-04-02T16:01:16.084Z,98756.40
2023-04-02T16:04:22.304Z,98760.60
2023-04-02T16:07:31.919Z,98764.80
2023-04-02T16:10:40.346Z,98771.00
2023-04-02T16:13:33.259Z,98773.20
2023-04-02T16:16:19.035Z,98777.20
2023-04-02T16:19:16.387Z,98784.80
2023-04-02T16:22:02.703Z,98789.00
2023-04-02T16:24:39.301Z,98795.60
2023-04-02T16:27:33.281Z,98800.00
2023-04-02T16:30:46.870Z,98804.00
2023-04-02T16:33:52.442Z,98805.00
2023-04-02T16:36:51.014Z,98807.00
2023-04-02T16:39:45.226Z,98813.40
2023-04-02T16:42:41.022Z,98817.20
2023-04-02T16:45:36.010Z,98822.20
2023-04-02T16:48:33.300Z,98826.80
2023-04-02T16:51:23.674Z,98829.80
2023-04-02T16:54:11.459Z,98834.60
2023-04-02T16:57:19.693Z,98839.00
2023-04-02T17:00:13.066Z,98840.60
2023-04-02T17:03:08.300Z,98845.60
2023-04-02T17:06:03.040Z,98851.20
2023-04-02T17:08:54.854Z,98853.40
2023-04-02T17:11:44.731Z,98854.40
2023-04-02T17:14:41.021Z,98860.40
2023-04-02T17:17:19.424Z,98870.20
2023-04-02T17:20:02.470Z,98872.40
2023-04-02T17:22:40.456Z,98871.40
2023-04-02T17:25:28.047Z,98876.00
2023-04-02T17:28:15.163Z,98877.40
2023-04-02T17:30:57.429Z,98881.00
2023-04-02T17:33:34.061Z,98884.80
2023-04-02T17:36:39.115Z,98884.80
2023-04-02T17:39:31.477Z,98889.20
2023-04-02T17:42:25.315Z,98889.60
2023-04-02T17:45:19.485Z,98894.20
2023-04-02T17:48:10.585Z,98901.20
2023-04-02T17:51:17.033Z,98903.20
2023-04-02T17:54:14.008Z,98901.00
2023-04-02T17:57:19.124Z,98905.80
2023-04-02T18:00:22.791Z,98913.20
2023-04-02T18:03:26.880Z,98916.60
2023-04-02T18:06:14.573Z,98919.40
2023-04-02T18:09:11.809Z,98924.60
2023-04-02T18:12:05.522Z,98925.60
2023-04-02T18:15:17.334Z,98931.80
2023-04-02T18:18:09.422Z,98936.60
2023-04-02T18:21:01.837Z,98940.80
2023-04-02T18:23:58.874Z,98942.20
2023-04-02T18:26:52.847Z,98948.00
2023-04-02T18:29:43.367Z,98943.40
2023-04-02T18:32:49.030Z,98945.40
2023-04-02T18:35:34.563Z,98950.40
2023-04-02T18:38:36.290Z,98959.40
2023-04-02T18:41:38.040Z,98958.60
2023-04-02T18:44:40.444Z,98959.60
2023-04-02T18:47:27.958Z,98966.20
2023-04-02T18:50:20.270Z,98971.00
2023-04-02T18:52:57.508Z,98969.20
2023-04-02T18:55:36.342Z,98971.00
2023-04-02T18:58:20.989Z,98977.20
2023-04-02T19:01:00.053Z,98973.80
2023-04-02T19:03:47.985Z,98976.00
2023-04-02T19:06:30.897Z,98978.20
2023-04-02T19:09:20.818Z,98981.40
2023-04-02T19:11:58.086Z,98985.00
2023-04-02T19:14:35.487Z,98987.60
2023-04-02T19:17:29.564Z,98987.00
2023-04-02T19:20:28.599Z,98984.60
2023-04-02T19:23:23.110Z,98985.40
2023-04-02T19:26:10.497Z,98985.20
2023-04-02T19:29:03.936Z,98990.60
2023-04-02T19:31:54.257Z,98986.40
2023-04-02T19:34:44.080Z,98990.40
2023-04-02T19:37:31.408Z,98991.80
2023-04-02T19:40:39.496Z,98994.80
2023-04-02T19:43:16.884Z,98998.40
2023-04-02T19:45:54.663Z,98999.00
2023-04-02T19:48:40.777Z,98998.40
2023-04-02T19:51:17.358Z,99001.60
2023-04-02T19:53:54.174Z,99005.20
2023-04-02T19:56:31.201Z,99008.00
2023-04-02T19:59:17.095Z,99010.80
2023-04-02T20:01:55.188Z,99009.20
2023-04-02T20:04:31.941Z,99009.60
2023-04-02T20:07:09.052Z,99013.60
2023-04-02T20:09:45.397Z,99014.80
2023-04-02T20:12:22.495Z,99024.40
2023-04-02T20:14:59.663Z,99022.40
2023-04-02T20:17:36.271Z,99023.80
2023-04-02T20:20:16.395Z,99021.80
2023-04-02T20:22:53.373Z,99023.40
2023-04-02T20:25:29.955Z,99024.80
2023-04-02T20:28:07.880Z,99026.60
2023-04-02T20:30:44.327Z,99025.40
2023-04-02T20:33:22.677Z,99026.60
2023-04-02T20:36:07.926Z,99031.20
2023-04-02T20:38:45.696Z,99030.20
2023-04-02T20:41:23.226Z,99033.00
2023-04-02T20:43:59.877Z,99035.00
2023-04-02T20:46:36.946Z,99033.60
2023-04-02T20:49:13.850Z,99036.60
2023-04-02T20:51:50.306Z,99035.40
2023-04-02T20:54:26.778Z,99042.40
2023-04-02T20:57:03.848Z,99041.60
2023-04-02T20:59:40.075Z,99037.20
2023-04-02T21:02:16.746Z,99037.00
2023-04-02T21:04:53.290Z,99039.80
2023-04-02T21:07:29.831Z,99040.40
2023-04-02T21:10:07.116Z,99046.40
2023-04-02T21:12:43.586Z,99047.60
2023-04-02T21:15:20.075Z,99047.60
2023-04-02T21:17:56.786Z,99052.80
2023-04-02T21:20:33.444Z,99053.00
2023-04-02T21:23:09.737Z,99056.20
2023-04-02T21:25:55.274Z,99050.40
2023-04-02T21:28:33.668Z,99052.60
2023-04-02T21:31:13.259Z,99055.20
2023-04-02T21:33:52.660Z,99057.00
2023-04-02T21:36:33.270Z,99054.80
2023-04-02T21:39:12.663Z,99053.80
2023-04-02T21:41:52.189Z,99052.20
2023-04-02T21:44:28.743Z,99054.60
2023-04-02T21:47:05.328Z,99054.60
2023-04-02T21:49:41.759Z,99055.20
2023-04-02T21:52:18.137Z,99057.40
2023-04-02T21:54:54.401Z,99064.80
2023-04-02T21:57:31.984Z,99062.60
2023-04-02T22:00:12.401Z,99061.20
2023-04-02T22:02:48.962Z,99063.60
2023-04-02T22:05:25.590Z,99064.20
2023-04-02T22:08:01.938Z,99064.80
2023-04-02T22:10:39.726Z,99065.00
2023-04-02T22:13:15.974Z,99071.40
2023-04-02T22:15:52.279Z,99067.60
2023-04-02T22:18:28.771Z,99066.60
2023-04-02T22:21:05.542Z,99070.60
2023-04-02T22:23:42.833Z,99071.60
2023-04-02T22:26:22.927Z,99074.40
2023-04-02T22:28:59.255Z,99075.80
2023-04-02T22:31:37.326Z,99075.80
2023-04-02T22:34:13.973Z,99077.00
2023-04-02T22:36:50.202Z,99082.40
2023-04-02T22:39:26.533Z,99084.60
2023-04-02T22:42:02.906Z,99086.40
2023-04-02T22:44:39.219Z,99088.60
2023-04-02T22:47:15.938Z,99087.00
2023-04-02T22:49:52.409Z,99086.40
2023-04-02T22:52:28.771Z,99091.00
2023-04-02T22:55:05.747Z,99093.00
2023-04-02T22:57:44.979Z,99086.00
2023-04-02T23:00:23.167Z,99090.60
2023-04-02T23:02:59.827Z,99086.60
2023-04-02T23:05:36.646Z,99087.80
2023-04-02T23:08:13.308Z,99093.00
2023-04-02T23:10:49.608Z,99095.00
2023-04-02T23:13:25.984Z,99090.80
2023-04-02T23:16:03.434Z,99097.20
2023-04-02T23:18:41.739Z,99095.80
2023-04-02T23:21:19.144Z,99101.60
2023-04-02T23:23:56.008Z,99100.60
2023-04-02T23:26:35.274Z,99101.80
2023-04-02T23:29:12.532Z,99104.00
2023-04-02T23:31:49.680Z,99107.40
2023-04-02T23:34:26.715Z,99106.00
2023-04-02T23:37:03.273Z,99108.40
2023-04-02T23:39:39.740Z,99112.80
2023-04-02T23:42:16.256Z,99109.80
2023-04-02T23:44:52.810Z,99107.20
2023-04-02T23:47:29.512Z,99109.00
2023-04-02T23:50:06.844Z,99107.40
2023-04-02T23:52:43.207Z,99110.80
2023-04-02T23:55:20.178Z,99109.40
2023-04-02T23:57:56.492Z,99114.20
